X  Sluiten METAR luchtvaart weer gegevens         EHGG Groningen
Temperatuur
11°C Temperatuur
10°C Dauwpunt
94% Vochtigheid



Wind
13 KM/U
8 MPH
4 M/S
7 KTS



210°
ZZW
Huidig weer

Cloudy Bewolkt
Luchtdruk 1015 (hPa) - 29.97 (inHg)
Zicht 5 (mijl) - 8 (km)
Vliegveld
Vliegveld code EHGG

Locatie : Groningen
Afstand: 18 (km)

Metar:
METAR EHGG 252025Z AUTO 21007KT 8000 OVC025 11/10 Q1015 TEMPO BKN012

Tijd: 25-10-2021 22:25 CEST